createdAt,value
2023-05-20T00:01:04.781Z,7.97
2023-05-20T00:03:31.675Z,10.63
2023-05-20T00:05:58.405Z,12.67
2023-05-20T00:08:25.355Z,13.93
2023-05-20T00:10:52.058Z,11.73
2023-05-20T00:13:18.797Z,11.07
2023-05-20T00:15:45.705Z,11.13
2023-05-20T00:18:12.443Z,10.20
2023-05-20T00:20:39.241Z,12.50
2023-05-20T00:23:05.997Z,9.57
2023-05-20T00:25:33.173Z,12.00
2023-05-20T00:28:00.078Z,8.57
2023-05-20T00:30:26.860Z,14.57
2023-05-20T00:32:53.737Z,11.07
2023-05-20T00:35:20.658Z,10.10
2023-05-20T00:37:47.516Z,8.17
2023-05-20T00:40:15.636Z,10.73
2023-05-20T00:42:42.565Z,9.97
2023-05-20T00:45:09.637Z,13.20
2023-05-20T00:47:37.299Z,16.50
2023-05-20T00:50:04.558Z,11.27
2023-05-20T00:52:32.838Z,10.27
2023-05-20T00:55:00.151Z,10.43
2023-05-20T00:57:27.181Z,10.43
2023-05-20T00:59:54.189Z,12.03
2023-05-20T01:02:21.462Z,13.43
2023-05-20T01:04:48.553Z,11.60
2023-05-20T01:07:19.239Z,11.03
2023-05-20T01:09:46.221Z,15.00
2023-05-20T01:12:15.676Z,11.00
2023-05-20T01:15:00.473Z,11.53
2023-05-20T01:17:31.136Z,11.10
2023-05-20T01:19:59.795Z,12.43
2023-05-20T01:22:28.145Z,16.57
2023-05-20T01:24:55.494Z,12.83
2023-05-20T01:27:22.969Z,10.03
2023-05-20T01:29:51.308Z,10.90
2023-05-20T01:32:22.354Z,8.07
2023-05-20T01:34:51.446Z,12.80
2023-05-20T01:37:19.881Z,13.20
2023-05-20T01:39:48.491Z,12.30
2023-05-20T01:42:16.405Z,10.77
2023-05-20T01:44:43.691Z,13.10
2023-05-20T01:47:10.451Z,12.40
2023-05-20T01:49:37.192Z,8.87
2023-05-20T01:52:04.806Z,12.30
2023-05-20T01:54:31.674Z,12.80
2023-05-20T01:56:58.398Z,12.80
2023-05-20T01:59:25.196Z,15.90
2023-05-20T02:01:51.955Z,12.87
2023-05-20T02:04:19.312Z,11.43
2023-05-20T02:06:46.269Z,9.00
2023-05-20T02:09:13.615Z,10.67
2023-05-20T02:11:40.742Z,14.07
2023-05-20T02:14:07.494Z,15.80
2023-05-20T02:16:34.310Z,10.93
2023-05-20T02:19:02.224Z,10.20
2023-05-20T02:21:29.068Z,10.00
2023-05-20T02:23:55.999Z,13.43
2023-05-20T02:26:22.782Z,13.97
2023-05-20T02:28:50.874Z,11.13
2023-05-20T02:31:18.153Z,15.27
2023-05-20T02:33:45.875Z,9.23
2023-05-20T02:36:12.699Z,12.77
2023-05-20T02:38:39.560Z,11.33
2023-05-20T02:41:06.660Z,14.90
2023-05-20T02:43:34.689Z,12.53
2023-05-20T02:46:01.491Z,9.93
2023-05-20T02:48:28.393Z,13.00
2023-05-20T02:50:55.403Z,12.10
2023-05-20T02:53:22.204Z,14.70
2023-05-20T02:55:49.654Z,11.53
2023-05-20T02:58:17.292Z,12.57
2023-05-20T03:00:44.243Z,12.40
2023-05-20T03:03:11.199Z,10.50
2023-05-20T03:05:38.173Z,10.83
2023-05-20T03:08:09.825Z,17.83
2023-05-20T03:10:39.977Z,15.33
2023-05-20T03:13:11.502Z,11.70
2023-05-20T03:15:39.290Z,13.93
2023-05-20T03:18:07.285Z,15.23
2023-05-20T03:20:38.317Z,13.63
2023-05-20T03:23:05.993Z,11.23
2023-05-20T03:25:33.095Z,14.67
2023-05-20T03:28:00.014Z,13.07
2023-05-20T03:30:28.115Z,14.07
2023-05-20T03:32:57.798Z,13.30
2023-05-20T03:35:25.041Z,15.17
2023-05-20T03:37:53.250Z,16.70
2023-05-20T03:40:21.339Z,10.63
2023-05-20T03:42:48.081Z,12.37
2023-05-20T03:45:14.803Z,12.03
2023-05-20T03:47:41.578Z,15.33
2023-05-20T03:50:08.703Z,10.07
2023-05-20T03:52:35.428Z,16.30
2023-05-20T03:55:02.241Z,11.97
2023-05-20T03:57:29.578Z,14.87
2023-05-20T03:59:56.351Z,10.50
2023-05-20T04:02:23.192Z,10.60
2023-05-20T04:04:53.020Z,15.40
2023-05-20T04:07:20.015Z,13.47
2023-05-20T04:09:46.842Z,17.03
2023-05-20T04:12:14.010Z,14.40
2023-05-20T04:14:42.244Z,14.27
2023-05-20T04:17:09.727Z,12.87
2023-05-20T04:19:38.284Z,14.33
2023-05-20T04:22:05.255Z,14.47
2023-05-20T04:24:32.075Z,10.73
2023-05-20T04:26:58.759Z,12.20
2023-05-20T04:29:25.550Z,13.03
2023-05-20T04:31:52.375Z,13.33
2023-05-20T04:34:20.357Z,11.73
2023-05-20T04:36:47.155Z,9.43
2023-05-20T04:39:15.638Z,12.17
2023-05-20T04:41:42.320Z,10.30
2023-05-20T04:44:09.568Z,10.47
2023-05-20T04:46:36.483Z,12.27
2023-05-20T04:49:04.596Z,10.40
2023-05-20T04:51:31.732Z,13.20
2023-05-20T04:53:59.177Z,17.20
2023-05-20T04:56:26.231Z,11.73
2023-05-20T04:58:53.061Z,10.90
2023-05-20T05:01:20.516Z,11.37
2023-05-20T05:03:47.306Z,9.37
2023-05-20T05:06:14.035Z,10.17
2023-05-20T05:08:41.006Z,8.83
2023-05-20T05:11:08.481Z,16.53
2023-05-20T05:13:35.522Z,9.03
2023-05-20T05:16:03.336Z,13.67
2023-05-20T05:18:30.376Z,10.87
2023-05-20T05:21:05.037Z,8.90
2023-05-20T05:23:32.697Z,8.60
2023-05-20T05:25:59.741Z,9.67
2023-05-20T05:28:26.670Z,9.27
2023-05-20T05:30:56.324Z,10.87
2023-05-20T05:33:23.286Z,10.50
2023-05-20T05:35:51.007Z,8.30
2023-05-20T05:38:18.163Z,7.03
2023-05-20T05:40:44.882Z,10.37
2023-05-20T05:43:12.348Z,6.07
2023-05-20T05:45:39.447Z,5.88
2023-05-20T05:48:06.262Z,6.25
2023-05-20T05:50:33.146Z,5.90
2023-05-20T05:53:00.049Z,5.55
2023-05-20T05:55:26.906Z,6.35
2023-05-20T05:57:53.948Z,4.85
2023-05-20T06:00:21.227Z,6.72
2023-05-20T06:02:48.542Z,4.32
2023-05-20T06:05:15.711Z,6.80
2023-05-20T06:07:42.551Z,3.97
2023-05-20T06:10:10.007Z,4.22
2023-05-20T06:12:36.866Z,6.00
2023-05-20T06:15:04.052Z,3.00
2023-05-20T06:17:30.955Z,3.30
2023-05-20T06:19:57.861Z,4.53
2023-05-20T06:22:24.823Z,4.65
2023-05-20T06:24:51.808Z,3.42
2023-05-20T06:27:18.605Z,3.03
2023-05-20T06:29:45.473Z,3.60
2023-05-20T06:32:12.295Z,3.08
2023-05-20T06:34:39.647Z,2.85
2023-05-20T06:37:06.494Z,2.85
2023-05-20T06:39:33.182Z,3.47
2023-05-20T06:41:59.894Z,5.03
2023-05-20T06:44:27.777Z,4.25
2023-05-20T06:46:54.649Z,3.55
2023-05-20T06:49:21.571Z,4.00
2023-05-20T06:51:48.832Z,2.97
2023-05-20T06:54:15.771Z,3.22
2023-05-20T06:56:56.893Z,2.67
2023-05-20T07:03:37.425Z,3.75
2023-05-20T07:06:04.311Z,5.15
2023-05-20T07:08:31.007Z,2.92
2023-05-20T07:10:57.804Z,4.40
2023-05-20T07:13:25.968Z,4.28
2023-05-20T07:15:52.832Z,2.65
2023-05-20T07:18:19.934Z,3.55
2023-05-20T07:20:46.914Z,2.80
2023-05-20T07:26:43.183Z,2.92
2023-05-20T07:29:10.708Z,2.35
2023-05-20T07:31:37.787Z,3.03
2023-05-20T07:34:04.808Z,3.38
2023-05-20T07:36:34.602Z,3.15
2023-05-20T07:39:05.007Z,4.68
2023-05-20T07:41:34.443Z,4.45
2023-05-20T07:44:04.536Z,5.57
2023-05-20T07:46:31.749Z,3.28
2023-05-20T07:48:58.693Z,4.15
2023-05-20T07:51:25.653Z,4.20
2023-05-20T07:53:52.677Z,4.28
2023-05-20T07:56:19.539Z,5.53
2023-05-20T07:58:53.902Z,3.70
2023-05-20T08:01:21.326Z,3.65
2023-05-20T08:03:48.229Z,3.70
2023-05-20T08:06:15.125Z,3.97
2023-05-20T08:08:44.250Z,4.07
2023-05-20T08:11:11.083Z,2.97
2023-05-20T08:13:38.086Z,3.47
2023-05-20T08:16:06.116Z,3.08
2023-05-20T08:18:34.809Z,3.85
2023-05-20T08:21:09.289Z,3.83
2023-05-20T08:23:40.226Z,3.30
2023-05-20T08:26:07.793Z,5.05
2023-05-20T08:28:37.303Z,4.18
2023-05-20T08:31:04.258Z,2.85
2023-05-20T08:33:31.164Z,4.20
2023-05-20T08:35:57.913Z,3.22
2023-05-20T08:38:24.595Z,3.47
2023-05-20T08:40:56.417Z,3.65
2023-05-20T08:43:26.934Z,2.80
2023-05-20T08:45:53.926Z,2.80
2023-05-20T08:48:23.585Z,2.72
2023-05-20T08:50:52.154Z,3.88
2023-05-20T08:53:21.993Z,2.92
2023-05-20T08:56:00.751Z,2.75
2023-05-20T08:58:29.405Z,3.25
2023-05-20T09:00:56.592Z,2.85
2023-05-20T09:03:24.416Z,3.22
2023-05-20T09:05:52.497Z,2.65
2023-05-20T09:08:24.356Z,3.22
2023-05-20T09:10:53.723Z,3.00
2023-05-20T09:13:22.292Z,5.15
2023-05-20T09:15:50.914Z,4.60
2023-05-20T09:18:17.812Z,2.58
2023-05-20T09:20:47.326Z,4.28
2023-05-20T09:23:15.354Z,2.35
2023-05-20T09:25:42.066Z,5.38
2023-05-20T09:28:09.339Z,3.53
2023-05-20T09:30:36.479Z,3.72
2023-05-20T09:33:05.605Z,1.83
2023-05-20T09:35:37.687Z,3.22
2023-05-20T09:38:09.669Z,2.25
2023-05-20T09:40:40.384Z,4.50
2023-05-20T09:43:07.976Z,3.03
2023-05-20T09:45:35.291Z,2.75
2023-05-20T09:48:03.892Z,4.00
2023-05-20T09:50:31.634Z,3.38
2023-05-20T09:53:03.080Z,2.83
2023-05-20T09:55:30.833Z,1.83
2023-05-20T09:58:02.014Z,3.97
2023-05-20T10:00:28.872Z,6.15
2023-05-20T10:02:56.530Z,2.78
2023-05-20T10:05:38.683Z,2.65
2023-05-20T10:08:30.374Z,3.75
2023-05-20T10:11:25.052Z,3.13
2023-05-20T10:14:19.757Z,2.88
2023-05-20T10:17:10.055Z,4.20
2023-05-20T10:19:37.070Z,3.70
2023-05-20T10:22:04.758Z,2.30
2023-05-20T10:24:34.505Z,4.15
2023-05-20T10:27:09.167Z,3.30
2023-05-20T10:29:54.000Z,2.63
2023-05-20T10:32:33.212Z,4.65
2023-05-20T10:35:05.628Z,4.35
2023-05-20T10:37:39.934Z,3.53
2023-05-20T10:40:11.650Z,5.57
2023-05-20T10:42:38.871Z,5.50
2023-05-20T10:45:07.180Z,2.63
2023-05-20T10:47:34.502Z,2.38
2023-05-20T10:50:07.952Z,2.63
2023-05-20T10:52:39.064Z,2.53
2023-05-20T10:55:06.676Z,2.67
2023-05-20T10:57:34.756Z,2.58
2023-05-20T11:00:02.206Z,2.83
2023-05-20T11:02:29.542Z,2.08
2023-05-20T11:04:58.571Z,2.72
2023-05-20T11:07:29.971Z,3.15
2023-05-20T11:09:57.653Z,4.05
2023-05-20T11:12:26.155Z,3.00
2023-05-20T11:14:53.389Z,2.55
2023-05-20T11:17:20.790Z,3.42
2023-05-20T11:19:51.675Z,2.58
2023-05-20T11:22:18.868Z,3.13
2023-05-20T11:24:47.125Z,3.42
2023-05-20T11:27:14.028Z,3.33
2023-05-20T11:29:41.077Z,3.10
2023-05-20T11:32:08.564Z,2.92
2023-05-20T11:34:36.896Z,4.30
2023-05-20T11:37:08.973Z,5.10
2023-05-20T11:39:35.885Z,2.78
2023-05-20T11:42:03.634Z,3.40
2023-05-20T11:44:30.691Z,2.20
2023-05-20T11:47:02.069Z,2.95
2023-05-20T11:49:29.122Z,2.88
2023-05-20T11:51:59.286Z,3.92
2023-05-20T11:54:26.283Z,4.97
2023-05-20T11:56:55.182Z,2.25
2023-05-20T11:59:24.463Z,1.70
2023-05-20T12:01:51.181Z,1.80
2023-05-20T12:04:18.666Z,3.38
2023-05-20T12:06:46.865Z,4.88
2023-05-20T12:09:14.073Z,2.63
2023-05-20T12:11:41.656Z,1.70
2023-05-20T12:14:09.209Z,3.28
2023-05-20T12:16:38.228Z,3.90
2023-05-20T12:19:05.603Z,2.15
2023-05-20T12:21:32.653Z,3.80
2023-05-20T12:24:00.063Z,3.25
2023-05-20T12:26:28.178Z,4.35
2023-05-20T12:28:55.583Z,4.22
2023-05-20T12:31:22.440Z,2.28
2023-05-20T12:33:49.317Z,2.97
2023-05-20T12:36:16.441Z,2.65
2023-05-20T12:38:43.203Z,4.30
2023-05-20T12:41:10.033Z,2.67
2023-05-20T12:43:37.577Z,2.55
2023-05-20T12:46:05.085Z,2.70
2023-05-20T12:48:32.095Z,2.45
2023-05-20T12:50:59.120Z,3.55
2023-05-20T12:53:26.121Z,2.47
2023-05-20T12:55:52.951Z,1.80
2023-05-20T12:58:19.910Z,2.85
2023-05-20T13:00:46.695Z,3.00
2023-05-20T13:03:13.568Z,6.15
2023-05-20T13:05:40.461Z,2.42
2023-05-20T13:08:08.983Z,2.03
2023-05-20T13:10:36.281Z,2.00
2023-05-20T13:13:03.311Z,1.52
2023-05-20T13:15:30.080Z,2.85
2023-05-20T13:17:57.220Z,1.92
2023-05-20T13:20:23.980Z,2.22
2023-05-20T13:22:51.093Z,2.33
2023-05-20T13:25:18.033Z,1.67
2023-05-20T13:27:44.753Z,3.13
2023-05-20T13:30:11.782Z,1.70
2023-05-20T13:32:38.804Z,2.90
2023-05-20T13:35:06.086Z,4.03
2023-05-20T13:37:32.784Z,2.10
2023-05-20T13:39:59.474Z,3.17
2023-05-20T13:42:26.246Z,4.03
2023-05-20T13:44:53.014Z,4.07
2023-05-20T13:47:20.074Z,1.60
2023-05-20T13:49:46.765Z,1.60
2023-05-20T13:52:13.468Z,2.05
2023-05-20T13:54:40.565Z,3.83
2023-05-20T13:57:08.094Z,1.90
2023-05-20T13:59:35.243Z,3.00
2023-05-20T14:02:02.515Z,2.03
2023-05-20T14:04:31.260Z,2.85
2023-05-20T14:06:59.268Z,2.60
2023-05-20T14:09:26.393Z,2.88
2023-05-20T14:11:53.208Z,2.30
2023-05-20T14:14:19.919Z,4.38
2023-05-20T14:16:47.084Z,2.85
2023-05-20T14:19:13.866Z,2.05
2023-05-20T14:21:40.653Z,3.08
2023-05-20T14:24:07.451Z,2.22
2023-05-20T14:26:34.790Z,2.17
2023-05-20T14:29:01.761Z,3.28
2023-05-20T14:31:28.577Z,4.93
2023-05-20T14:33:55.425Z,1.75
2023-05-20T14:36:22.308Z,3.28
2023-05-20T14:38:49.823Z,4.57
2023-05-20T14:41:17.280Z,2.47
2023-05-20T14:43:44.048Z,1.73
2023-05-20T14:46:11.482Z,3.67
2023-05-20T14:48:38.350Z,2.80
2023-05-20T14:51:05.352Z,3.72
2023-05-20T14:53:32.156Z,2.30
2023-05-20T14:55:58.906Z,5.65
2023-05-20T14:58:25.688Z,7.50
2023-05-20T15:00:56.037Z,21.10
2023-05-20T15:03:27.977Z,3.65
2023-05-20T15:05:54.836Z,3.28
2023-05-20T15:08:21.739Z,2.38
2023-05-20T15:10:48.570Z,4.20
2023-05-20T15:13:15.294Z,4.13
2023-05-20T15:15:42.168Z,3.90
2023-05-20T15:18:08.961Z,5.80
2023-05-20T15:20:35.989Z,2.75
2023-05-20T15:23:04.034Z,3.80
2023-05-20T15:25:30.891Z,3.42
2023-05-20T15:27:57.818Z,3.42
2023-05-20T15:30:24.717Z,3.05
2023-05-20T15:32:51.630Z,2.22
2023-05-20T15:35:18.367Z,6.78
2023-05-20T15:37:45.090Z,2.75
2023-05-20T15:40:12.051Z,2.70
2023-05-20T15:42:39.171Z,2.88
2023-05-20T15:45:07.365Z,3.33
2023-05-20T15:47:34.302Z,2.35
2023-05-20T15:50:05.136Z,2.22
2023-05-20T15:52:31.892Z,3.40
2023-05-20T15:54:58.814Z,4.60
2023-05-20T15:57:26.212Z,8.30
2023-05-20T15:59:53.314Z,12.07
2023-05-20T16:02:21.766Z,5.78
2023-05-20T16:04:48.586Z,7.35
2023-05-20T16:07:15.468Z,4.13
2023-05-20T16:09:42.337Z,3.35
2023-05-20T16:12:09.016Z,4.95
2023-05-20T16:14:36.161Z,7.22
2023-05-20T16:17:02.865Z,3.13
2023-05-20T16:19:29.802Z,2.67
2023-05-20T16:21:56.617Z,3.50
2023-05-20T16:24:23.368Z,3.13
2023-05-20T16:26:53.023Z,4.20
2023-05-20T16:29:19.896Z,3.63
2023-05-20T16:31:47.137Z,5.95
2023-05-20T16:34:14.709Z,3.35
2023-05-20T16:36:41.794Z,4.97
2023-05-20T16:39:08.521Z,9.15
2023-05-20T16:41:35.222Z,5.72
2023-05-20T16:44:01.984Z,5.10
2023-05-20T16:46:28.902Z,2.65
2023-05-20T16:48:55.668Z,3.28
2023-05-20T16:51:22.612Z,3.65
2023-05-20T16:53:49.435Z,3.88
2023-05-20T16:56:16.237Z,4.45
2023-05-20T16:58:42.963Z,7.25
2023-05-20T17:01:09.749Z,13.50
2023-05-20T17:03:36.489Z,9.40
2023-05-20T17:06:03.616Z,12.15
2023-05-20T17:08:30.346Z,11.20
2023-05-20T17:10:58.886Z,7.03
2023-05-20T17:13:25.719Z,5.50
2023-05-20T17:15:52.855Z,14.35
2023-05-20T17:18:19.838Z,9.55
2023-05-20T17:20:46.695Z,14.25
2023-05-20T17:23:14.782Z,7.65
2023-05-20T17:25:41.510Z,5.35
2023-05-20T17:28:08.294Z,4.97
2023-05-20T17:30:35.246Z,5.70
2023-05-20T17:33:02.172Z,4.38
2023-05-20T17:35:29.042Z,3.40
2023-05-20T17:37:56.080Z,2.55
2023-05-20T17:40:22.959Z,4.13
2023-05-20T17:42:49.831Z,2.63
2023-05-20T17:45:16.710Z,6.10
2023-05-20T17:47:43.468Z,7.22
2023-05-20T17:50:10.958Z,3.33
2023-05-20T17:52:37.786Z,2.22
2023-05-20T17:55:04.979Z,1.90
2023-05-20T17:57:31.745Z,5.22
2023-05-20T17:59:58.530Z,2.75
2023-05-20T18:02:25.301Z,3.67
2023-05-20T18:04:52.108Z,3.13
2023-05-20T18:07:18.899Z,4.82
2023-05-20T18:09:45.581Z,2.45
2023-05-20T18:12:12.295Z,3.55
2023-05-20T18:14:38.997Z,7.10
2023-05-20T18:17:05.892Z,4.05
2023-05-20T18:19:33.855Z,2.85
2023-05-20T18:22:02.594Z,2.78
2023-05-20T18:24:29.447Z,2.33
2023-05-20T18:26:56.166Z,2.60
2023-05-20T18:29:24.331Z,3.00
2023-05-20T18:31:51.133Z,3.63
2023-05-20T18:34:17.883Z,2.47
2023-05-20T18:36:44.823Z,2.33
2023-05-20T18:39:14.047Z,4.05
2023-05-20T18:44:12.525Z,2.92
2023-05-20T18:46:39.518Z,3.78
2023-05-20T18:49:06.252Z,2.42
2023-05-20T18:51:33.691Z,3.85
2023-05-20T18:54:00.699Z,2.97
2023-05-20T18:56:27.791Z,2.00
2023-05-20T18:58:54.500Z,2.05
2023-05-20T19:01:21.906Z,2.22
2023-05-20T19:03:48.735Z,3.40
2023-05-20T19:06:16.545Z,2.35
2023-05-20T19:08:43.780Z,2.00
2023-05-20T19:11:11.147Z,2.35
2023-05-20T19:13:37.882Z,2.65
2023-05-20T19:16:04.798Z,3.65
2023-05-20T19:18:31.596Z,2.65
2023-05-20T19:20:58.288Z,2.70
2023-05-20T19:23:25.719Z,3.20
2023-05-20T19:25:52.586Z,3.15
2023-05-20T19:28:19.567Z,6.18
2023-05-20T19:30:47.095Z,3.95
2023-05-20T19:33:13.980Z,3.55
2023-05-20T19:35:40.780Z,4.63
2023-05-20T19:38:07.631Z,4.30
2023-05-20T19:40:35.639Z,3.08
2023-05-20T19:43:02.502Z,4.25
2023-05-20T19:45:29.286Z,2.33
2023-05-20T19:47:56.878Z,4.95
2023-05-20T19:50:24.395Z,4.03
2023-05-20T19:52:52.229Z,2.65
2023-05-20T19:55:18.947Z,3.05
2023-05-20T19:57:47.566Z,3.63
2023-05-20T20:00:15.449Z,4.10
2023-05-20T20:02:42.236Z,3.10
2023-05-20T20:05:09.892Z,3.30
2023-05-20T20:07:36.742Z,4.15
2023-05-20T20:10:03.846Z,3.65
2023-05-20T20:12:30.513Z,5.38
2023-05-20T20:14:57.196Z,3.22
2023-05-20T20:17:24.229Z,4.40
2023-05-20T20:19:53.276Z,6.00
2023-05-20T20:22:20.287Z,5.03
2023-05-20T20:24:47.312Z,2.88
2023-05-20T20:27:14.018Z,3.05
2023-05-20T20:29:43.653Z,2.97
2023-05-20T20:32:11.800Z,3.90
2023-05-20T20:34:38.658Z,3.85
2023-05-20T20:37:06.779Z,2.97
2023-05-20T20:39:34.631Z,2.50
2023-05-20T20:42:02.980Z,3.47
2023-05-20T20:44:29.695Z,4.70
2023-05-20T20:46:58.331Z,3.15
2023-05-20T20:49:26.924Z,4.40
2023-05-20T20:51:55.106Z,4.70
2023-05-20T20:54:21.832Z,4.50
2023-05-20T20:56:50.002Z,5.20
2023-05-20T20:59:16.769Z,4.13
2023-05-20T21:01:44.778Z,4.65
2023-05-20T21:04:13.673Z,3.47
2023-05-20T21:06:47.152Z,3.17
2023-05-20T21:09:14.745Z,4.90
2023-05-20T21:11:45.937Z,2.95
2023-05-20T21:14:13.221Z,4.15
2023-05-20T21:16:40.172Z,3.10
2023-05-20T21:19:07.007Z,4.38
2023-05-20T21:21:33.917Z,6.00
2023-05-20T21:24:00.772Z,3.58
2023-05-20T21:26:27.535Z,4.90
2023-05-20T21:28:54.294Z,4.57
2023-05-20T21:31:21.245Z,4.47
2023-05-20T21:33:47.965Z,4.65
2023-05-20T21:36:14.722Z,3.28
2023-05-20T21:38:41.477Z,3.77
2023-05-20T21:41:08.456Z,3.50
2023-05-20T21:43:36.058Z,3.75
2023-05-20T21:46:03.022Z,3.13
2023-05-20T21:48:29.748Z,5.22
2023-05-20T21:50:56.620Z,4.27
2023-05-20T21:53:23.337Z,4.27
2023-05-20T21:55:50.285Z,4.50
2023-05-20T21:58:17.033Z,4.17
2023-05-20T22:00:43.997Z,4.17
2023-05-20T22:03:12.073Z,4.43
2023-05-20T22:05:38.966Z,7.00
2023-05-20T22:08:05.835Z,3.73
2023-05-20T22:10:34.145Z,4.57
2023-05-20T22:13:02.109Z,4.30
2023-05-20T22:15:28.988Z,3.70
2023-05-20T22:17:55.869Z,3.87
2023-05-20T22:20:22.815Z,4.83
2023-05-20T22:22:49.717Z,4.60
2023-05-20T22:25:17.299Z,4.17
2023-05-20T22:27:44.135Z,4.07
2023-05-20T22:30:12.242Z,7.43
2023-05-20T22:32:40.301Z,5.30
2023-05-20T22:35:07.652Z,5.63
2023-05-20T22:37:34.629Z,4.97
2023-05-20T22:40:01.568Z,5.20
2023-05-20T22:42:28.313Z,3.77
2023-05-20T22:44:55.005Z,5.40
2023-05-20T22:47:21.793Z,4.87
2023-05-20T22:49:48.515Z,3.73
2023-05-20T22:52:15.251Z,5.67
2023-05-20T22:54:41.980Z,4.37
2023-05-20T22:57:08.747Z,5.33
2023-05-20T22:59:36.512Z,5.40
2023-05-20T23:02:03.953Z,4.80
2023-05-20T23:04:30.991Z,4.30
2023-05-20T23:06:59.448Z,4.37
2023-05-20T23:09:26.542Z,4.20
2023-05-20T23:11:53.366Z,4.97
2023-05-20T23:14:20.242Z,4.27
2023-05-20T23:16:47.229Z,4.97
2023-05-20T23:19:14.756Z,5.90
2023-05-20T23:21:41.547Z,5.90
2023-05-20T23:24:08.643Z,6.70
2023-05-20T23:26:37.937Z,3.77
2023-05-20T23:29:05.137Z,4.30
2023-05-20T23:31:32.794Z,4.20
2023-05-20T23:33:59.974Z,5.03
2023-05-20T23:36:28.995Z,4.63
2023-05-20T23:38:56.426Z,4.97
2023-05-20T23:41:23.662Z,6.77
2023-05-20T23:43:50.752Z,4.90
2023-05-20T23:46:18.665Z,4.60
2023-05-20T23:48:48.265Z,4.80
2023-05-20T23:51:16.408Z,4.77
2023-05-20T23:53:43.996Z,5.57
2023-05-20T23:56:10.757Z,4.90
2023-05-20T23:58:37.585Z,4.27
